Time;durP1;ratioP1;P1;durP2;ratioP2;P2;SDS_P1;SDS_P2;PMS_P1;PMS_P2;Temp;Humidity;BMP_temperature;BMP_pressure;BME280_temperature;BME280_humidity;BME280_pressure;Samples;Min_cycle;Max_cycle;Signal;HPM_P1;HPM_P2
2023/04/08 00:00:07;;;;;;;;;;;;;;;;;;855678;28;10001066;-89
2023/04/08 00:01:07;;;;;;;;;;;;;;;;;;2055416;28;19968;-89
2023/04/08 00:02:08;;;;;;;;;;;;;;;;;;2056769;28;20001;-88
2023/04/08 00:03:08;;;;;;;;;;;;;;;;;;2063382;28;20428;-89
2023/04/08 00:04:08;;;;;;;;;;;;;;;;;;2064288;28;20443;-89
2023/04/08 00:05:09;;;;;;;;;;;;;;;;;;2068077;28;19931;-89
2023/04/08 00:06:10;;;;;;;;;;;;;;;;;;2069711;28;19960;-89
2023/04/08 00:07:10;;;;;;;;;;;;;;;;;;2071855;28;19925;-89
2023/04/08 00:08:10;;;;;;;;;;;;;;;;;;2066179;28;19941;-90
2023/04/08 00:09:10;;;;;;;;;;;;;;;;;;2059431;28;20436;-90
2023/04/08 00:10:11;;;;;;;;;;;;;;;;;;2048134;29;20465;-89
2023/04/08 00:11:11;;;;;;;;;;;;;;;;;;2055978;28;19921;-90
2023/04/08 00:12:11;;;;;;;;;;;;;;;;;;2063800;28;19914;-90
2023/04/08 00:13:12;;;;;;;;;;;;;;;;;;2063829;28;19914;-91
2023/04/08 00:14:13;;;;;;;;;;;;;;;;;;2063822;28;19944;-89
2023/04/08 00:15:13;;;;;;;;;;;;;;;;;;2063602;28;19968;-88
2023/04/08 00:16:14;;;;;;;;;;;;;;;;;;2063651;28;19928;-89
2023/04/08 00:17:14;;;;;;;;;;;;;;;;;;2055842;28;19915;-88
2023/04/08 00:18:15;;;;;;;;;;;;;;;;;;2055621;28;20459;-89
2023/04/08 00:19:15;;;;;;;;;;;;;;;;;;2056047;28;19918;-89
2023/04/08 00:20:16;;;;;;;;;;;;;;;;;;2063926;28;19972;-89
2023/04/08 00:21:19;;;;;;;;;;;;;;;;;;2064357;28;19937;-89
2023/04/08 00:22:19;;;;;;;;;;;;;;;;;;2063674;28;20479;-89
2023/04/08 00:23:20;;;;;;;;;;;;;;;;;;2063759;28;19929;-88
2023/04/08 00:24:20;;;;;;;;;;;;;;;;;;2064733;28;19913;-88
2023/04/08 00:25:20;;;;;;;;;;;;;;;;;;2063730;28;19913;-91
2023/04/08 00:26:21;;;;;;;;;;;;;;;;;;2055842;28;19937;-89
2023/04/08 00:27:21;;;;;;;;;;;;;;;;;;2047719;28;19915;-90
2023/04/08 00:28:21;;;;;;;;;;;;;;;;;;2055600;28;19914;-89
2023/04/08 00:29:22;;;;;;;;;;;;;;;;;;2055503;28;20388;-89
2023/04/08 00:30:22;;;;;;;;;;;;;;;;;;2055760;28;19914;-88
2023/04/08 00:31:22;;;;;;;;;;;;;;;;;;2063293;28;19958;-89
2023/04/08 00:32:23;;;;;;;;;;;;;;;;;;2055404;28;20345;-89
2023/04/08 00:33:24;;;;;;;;;;;;;;;;;;2047309;28;20405;-88
2023/04/08 00:34:24;;;;;;;;;;;;;;;;;;2055728;28;19921;-88
2023/04/08 00:35:25;;;;;;;;;;;;;;;;;;2064077;28;20401;-88
2023/04/08 00:36:26;;;;;;;;;;;;;;;;;;2064337;28;19918;-88
2023/04/08 00:37:26;;;;;;;;;;;;;;;;;;2063430;28;19922;-88
2023/04/08 00:38:27;;;;;;;;;;;;;;;;;;2055307;28;19913;-90
2023/04/08 00:39:27;;;;;;;;;;;;;;;;;;2054998;28;19918;-89
2023/04/08 00:40:27;;;;;;;;;;;;;;;;;;2055578;28;19914;-89
2023/04/08 00:41:27;;;;;;;;;;;;;;;;;;2055048;28;20410;-89
2023/04/08 00:42:29;;;;;;;;;;;;;;;;;;2055034;28;19972;-90
2023/04/08 00:43:30;;;;;;;;;;;;;;;;;;2055535;28;19918;-90
2023/04/08 00:44:30;;;;;;;;;;;;;;;;;;2063509;28;20415;-90
2023/04/08 00:45:32;;;;;;;;;;;;;;;;;;2063385;28;20308;-90
2023/04/08 00:46:35;;;;;;;;;;;;;;;;;;2055289;28;20306;-90
2023/04/08 00:47:35;;;;;;;;;;;;;;;;;;2055564;28;19993;-89
2023/04/08 00:48:35;;;;;;;;;;;;;;;;;;2064924;28;20356;-90
2023/04/08 00:49:36;;;;;;;;;;;;;;;;;;2057370;28;20155;-89
2023/04/08 00:50:36;;;;;;;;;;;;;;;;;;2055606;28;19914;-90
2023/04/08 00:51:36;;;;;;;;;;;;;;;;;;2058178;28;19914;-90
2023/04/08 00:52:37;;;;;;;;;;;;;;;;;;2053538;28;19914;-88
2023/04/08 00:53:37;;;;;;;;;;;;;;;;;;2060297;28;19914;-89
2023/04/08 00:54:37;;;;;;;;;;;;;;;;;;2063608;28;19952;-88
2023/04/08 00:55:37;;;;;;;;;;;;;;;;;;2063683;28;19914;-89
2023/04/08 00:56:38;;;;;;;;;;;;;;;;;;2064042;28;19924;-89
2023/04/08 00:57:38;;;;;;;;;;;;;;;;;;2063931;28;19920;-90
2023/04/08 00:58:39;;;;;;;;;;;;;;;;;;2063878;28;19921;-89
2023/04/08 00:59:39;;;;;;;;;;;;;;;;;;2064873;28;19913;-90
2023/04/08 01:00:42;;;;;;;;;;;;;;;;;;2064592;28;19960;-90
2023/04/08 01:01:46;;;;;;;;;;;;;;;;;;2064444;28;19968;-90
2023/04/08 01:03:00;;;;;;;;;;;;;;;;;;2063722;28;19914;-89
2023/04/08 01:04:12;;;;;;;;;;;;;;;;;;2057757;28;20283;-89
2023/04/08 01:05:20;;;;;;;;;;;;;;;;;;2051300;28;20262;-90
2023/04/08 01:06:30;;;;;;;;;;;;;;;;;;2055742;28;19919;-88
2023/04/08 01:07:33;;;;;;;;;;;;;;;;;;2064754;28;19914;-86
2023/04/08 01:08:36;;;;;;;;;;;;;;;;;;2063084;28;19954;-87
2023/04/08 01:09:38;;;;;;;;;;;;;;;;;;2062337;28;19914;-88
2023/04/08 01:10:41;;;;;;;;;;;;;;;;;;2063793;28;19922;-88
2023/04/08 01:11:42;;;;;;;;;;;;;;;;;;2063491;28;19940;-88
2023/04/08 01:12:47;;;;;;;;;;;;;;;;;;2055290;28;20432;-89
2023/04/08 01:13:48;;;;;;;;;;;;;;;;;;2055695;28;20262;-90
2023/04/08 01:14:51;;;;;;;;;;;;;;;;;;2055567;28;20448;-90
2023/04/08 01:15:52;;;;;;;;;;;;;;;;;;2055726;28;19921;-90
2023/04/08 01:16:55;;;;;;;;;;;;;;;;;;2048866;28;19922;-90
2023/04/08 01:17:56;;;;;;;;;;;;;;;;;;2056484;28;19930;-89
2023/04/08 01:18:56;;;;;;;;;;;;;;;;;;2066166;28;19918;-87
2023/04/08 01:19:58;;;;;;;;;;;;;;;;;;2070217;28;19925;-88
2023/04/08 01:20:59;;;;;;;;;;;;;;;;;;2062009;28;19950;-89
2023/04/08 01:22:07;;;;;;;;;;;;;;;;;;2053750;28;19967;-89
2023/04/08 01:23:08;;;;;;;;;;;;;;;;;;2056801;28;20000;-90
2023/04/08 01:24:20;;;;;;;;;;;;;;;;;;2063478;28;20246;-90
2023/04/08 01:25:23;;;;;;;;;;;;;;;;;;2063821;28;19921;-90
2023/04/08 01:26:25;;;;;;;;;;;;;;;;;;2055739;28;20511;-90
2023/04/08 01:27:27;;;;;;;;;;;;;;;;;;2047847;28;19919;-90
2023/04/08 01:28:29;;;;;;;;;;;;;;;;;;2055634;28;19953;-90
2023/04/08 01:29:30;;;;;;;;;;;;;;;;;;2047707;28;19915;-90
2023/04/08 01:30:31;;;;;;;;;;;;;;;;;;2055677;28;19925;-89
2023/04/08 01:31:32;;;;;;;;;;;;;;;;;;2063328;28;19918;-90
2023/04/08 01:32:32;;;;;;;;;;;;;;;;;;2063344;28;19993;-90
2023/04/08 01:33:34;;;;;;;;;;;;;;;;;;2063355;28;20369;-91
2023/04/08 01:34:35;;;;;;;;;;;;;;;;;;2063226;28;19913;-89
2023/04/08 01:35:35;;;;;;;;;;;;;;;;;;2066867;28;19914;-89
2023/04/08 01:36:37;;;;;;;;;;;;;;;;;;2064619;28;20000;-89
2023/04/08 01:37:39;;;;;;;;;;;;;;;;;;2064146;28;19920;-90
2023/04/08 01:38:40;;;;;;;;;;;;;;;;;;2065112;28;19926;-88
2023/04/08 01:39:41;;;;;;;;;;;;;;;;;;2055275;28;19925;-90
2023/04/08 01:40:41;;;;;;;;;;;;;;;;;;2055268;28;19997;-89
2023/04/08 01:41:42;;;;;;;;;;;;;;;;;;2063879;28;19941;-89
2023/04/08 01:42:43;;;;;;;;;;;;;;;;;;2063316;28;19922;-90
2023/04/08 01:43:44;;;;;;;;;;;;;;;;;;2063147;28;19969;-90
2023/04/08 01:44:45;;;;;;;;;;;;;;;;;;2063147;28;19921;-89
2023/04/08 01:45:46;;;;;;;;;;;;;;;;;;2055440;28;20024;-90
2023/04/08 01:46:47;;;;;;;;;;;;;;;;;;2053259;28;19994;-88
2023/04/08 01:47:48;;;;;;;;;;;;;;;;;;2061330;28;20077;-90
2023/04/08 01:48:48;;;;;;;;;;;;;;;;;;2055553;28;20360;-90
2023/04/08 01:49:50;;;;;;;;;;;;;;;;;;2063688;28;19914;-91
2023/04/08 01:50:51;;;;;;;;;;;;;;;;;;2056125;28;19922;-90
2023/04/08 01:51:52;;;;;;;;;;;;;;;;;;2047878;28;20294;-91
2023/04/08 01:52:53;;;;;;;;;;;;;;;;;;2055490;28;19914;-91
2023/04/08 01:53:54;;;;;;;;;;;;;;;;;;2047211;28;19914;-90
2023/04/08 01:54:54;;;;;;;;;;;;;;;;;;2055938;28;19921;-91
2023/04/08 01:55:57;;;;;;;;;;;;;;;;;;2067910;28;19913;-90
2023/04/08 01:56:58;;;;;;;;;;;;;;;;;;2069144;28;20417;-91
2023/04/08 01:57:59;;;;;;;;;;;;;;;;;;2067934;28;19921;-92
2023/04/08 01:59:00;;;;;;;;;;;;;;;;;;2070917;28;19913;-90
2023/04/08 02:00:01;;;;;;;;;;;;;;;;;;2073454;28;19964;-90
2023/04/08 02:01:02;;;;;;;;;;;;;;;;;;2065718;28;19913;-91
2023/04/08 02:02:06;;;;;;;;;;;;;;;;;;2064492;28;19921;-91
2023/04/08 02:03:07;;;;;;;;;;;;;;;;;;2063980;28;19913;-91
2023/04/08 02:04:08;;;;;;;;;;;;;;;;;;2063418;28;20408;-91
2023/04/08 02:05:08;;;;;;;;;;;;;;;;;;2063119;28;19914;-91
2023/04/08 02:06:08;;;;;;;;;;;;;;;;;;2055030;28;19918;-91
2023/04/08 02:07:10;;;;;;;;;;;;;;;;;;2047048;29;19926;-90
2023/04/08 02:08:11;;;;;;;;;;;;;;;;;;2047166;28;19930;-90
2023/04/08 02:09:11;;;;;;;;;;;;;;;;;;2054718;28;20309;-91
2023/04/08 02:10:11;;;;;;;;;;;;;;;;;;2055280;28;20001;-91
2023/04/08 02:11:11;;;;;;;;;;;;;;;;;;2046979;29;19921;-91
2023/04/08 02:12:12;;;;;;;;;;;;;;;;;;2047094;29;20306;-91
2023/04/08 02:13:12;;;;;;;;;;;;;;;;;;2055011;28;19921;-90
2023/04/08 02:14:13;;;;;;;;;;;;;;;;;;2063041;28;19913;-91
2023/04/08 02:15:13;;;;;;;;;;;;;;;;;;2063270;28;20021;-91
2023/04/08 02:16:28;;;;;;;;;;;;;;;;;;2057135;28;19940;-90
2023/04/08 02:17:33;;;;;;;;;;;;;;;;;;2060428;28;20060;-90
2023/04/08 02:18:36;;;;;;;;;;;;;;;;;;2055072;28;20033;-91
2023/04/08 02:19:46;;;;;;;;;;;;;;;;;;2061626;28;19914;-90
2023/04/08 02:20:49;;;;;;;;;;;;;;;;;;2070155;28;19914;-90
2023/04/08 02:21:53;;;;;;;;;;;;;;;;;;2064913;28;19936;-90
2023/04/08 02:23:02;;;;;;;;;;;;;;;;;;2064339;28;19913;-90
2023/04/08 02:24:04;;;;;;;;;;;;;;;;;;2063835;28;19914;-89
2023/04/08 02:25:07;;;;;;;;;;;;;;;;;;2062875;28;19929;-90
2023/04/08 02:26:12;;;;;;;;;;;;;;;;;;2054837;28;19941;-90
2023/04/08 02:27:14;;;;;;;;;;;;;;;;;;2047449;28;19962;-88
2023/04/08 02:28:16;;;;;;;;;;;;;;;;;;2054831;28;19921;-90
2023/04/08 02:29:18;;;;;;;;;;;;;;;;;;2062725;28;19957;-89
2023/04/08 02:30:20;;;;;;;;;;;;;;;;;;2062922;28;20400;-88
2023/04/08 02:31:21;;;;;;;;;;;;;;;;;;2054845;28;19918;-89
2023/04/08 02:32:22;;;;;;;;;;;;;;;;;;2054501;28;19918;-88
2023/04/08 02:33:23;;;;;;;;;;;;;;;;;;2062743;28;19924;-89
2023/04/08 02:34:24;;;;;;;;;;;;;;;;;;2062823;28;19917;-89
2023/04/08 02:35:25;;;;;;;;;;;;;;;;;;2063444;28;20389;-88
2023/04/08 02:36:26;;;;;;;;;;;;;;;;;;2062964;28;19937;-88
2023/04/08 02:37:30;;;;;;;;;;;;;;;;;;2063343;28;19913;-91
2023/04/08 02:38:30;;;;;;;;;;;;;;;;;;2054517;28;20376;-88
2023/04/08 02:39:31;;;;;;;;;;;;;;;;;;2046740;29;19934;-90
2023/04/08 02:40:32;;;;;;;;;;;;;;;;;;2048986;28;19914;-89
2023/04/08 02:41:32;;;;;;;;;;;;;;;;;;2061028;28;19924;-89
2023/04/08 02:42:33;;;;;;;;;;;;;;;;;;2058443;28;20279;-90
2023/04/08 02:43:33;;;;;;;;;;;;;;;;;;2047180;28;20410;-90
2023/04/08 02:44:33;;;;;;;;;;;;;;;;;;2054995;28;20049;-90
2023/04/08 02:45:39;;;;;;;;;;;;;;;;;;2055397;28;19922;-90
2023/04/08 02:46:40;;;;;;;;;;;;;;;;;;2055731;28;19949;-90
2023/04/08 02:47:40;;;;;;;;;;;;;;;;;;2063362;28;19918;-90
2023/04/08 02:48:40;;;;;;;;;;;;;;;;;;2055120;28;19914;-90
2023/04/08 02:49:41;;;;;;;;;;;;;;;;;;2054983;28;20035;-89
2023/04/08 02:50:41;;;;;;;;;;;;;;;;;;2047204;29;19962;-90
2023/04/08 02:51:41;;;;;;;;;;;;;;;;;;2047070;29;19914;-89
2023/04/08 02:52:43;;;;;;;;;;;;;;;;;;2054858;28;19925;-89
2023/04/08 02:53:44;;;;;;;;;;;;;;;;;;2062816;28;19914;-90
2023/04/08 02:54:44;;;;;;;;;;;;;;;;;;2062705;28;19952;-91
2023/04/08 02:55:44;;;;;;;;;;;;;;;;;;2054682;28;19922;-90
2023/04/08 02:56:45;;;;;;;;;;;;;;;;;;2046797;29;20342;-91
2023/04/08 02:57:46;;;;;;;;;;;;;;;;;;2054967;28;20032;-90
2023/04/08 02:58:46;;;;;;;;;;;;;;;;;;2062591;28;19925;-90
2023/04/08 02:59:46;;;;;;;;;;;;;;;;;;2054851;28;20012;-90
2023/04/08 03:00:47;;;;;;;;;;;;;;;;;;2054759;28;19973;-89
2023/04/08 03:01:47;;;;;;;;;;;;;;;;;;2063173;28;19913;-89
2023/04/08 03:02:47;;;;;;;;;;;;;;;;;;2063401;28;19992;-90
2023/04/08 03:03:47;;;;;;;;;;;;;;;;;;2063853;28;20446;-89
2023/04/08 03:04:48;;;;;;;;;;;;;;;;;;2046687;28;19953;-89
2023/04/08 03:05:48;;;;;;;;;;;;;;;;;;1690869;28;10449446;-89
2023/04/08 03:06:50;;;;;;;;;;;;;;;;;;2048206;28;20018;-88
2023/04/08 03:07:50;;;;;;;;;;;;;;;;;;2055995;28;20041;-90
2023/04/08 03:08:50;;;;;;;;;;;;;;;;;;2064013;28;20369;-90
2023/04/08 03:09:51;;;;;;;;;;;;;;;;;;2064688;28;20008;-91
2023/04/08 03:10:55;;;;;;;;;;;;;;;;;;2050340;28;20386;-90
2023/04/08 03:11:55;;;;;;;;;;;;;;;;;;2057898;28;19946;-91
2023/04/08 03:12:55;;;;;;;;;;;;;;;;;;2066592;28;19918;-90
2023/04/08 03:13:56;;;;;;;;;;;;;;;;;;2067745;28;19914;-92
2023/04/08 03:14:56;;;;;;;;;;;;;;;;;;2064766;28;19949;-90
2023/04/08 03:15:57;;;;;;;;;;;;;;;;;;2065230;28;20491;-91
2023/04/08 03:16:57;;;;;;;;;;;;;;;;;;2064850;28;19914;-91
2023/04/08 03:17:57;;;;;;;;;;;;;;;;;;2064968;28;19921;-90
2023/04/08 03:18:57;;;;;;;;;;;;;;;;;;2064406;28;19941;-90
2023/04/08 03:19:58;;;;;;;;;;;;;;;;;;2056888;28;19918;-91
2023/04/08 03:20:58;;;;;;;;;;;;;;;;;;2048814;28;19918;-90
2023/04/08 03:21:59;;;;;;;;;;;;;;;;;;2048760;28;20404;-89
2023/04/08 03:23:02;;;;;;;;;;;;;;;;;;2048497;28;20001;-91
2023/04/08 03:24:02;;;;;;;;;;;;;;;;;;2057097;28;19955;-91
2023/04/08 03:25:03;;;;;;;;;;;;;;;;;;2065419;28;20464;-91
2023/04/08 03:26:03;;;;;;;;;;;;;;;;;;2065197;28;19994;-93
2023/04/08 03:27:04;;;;;;;;;;;;;;;;;;2067261;28;19980;-95
2023/04/08 03:28:04;;;;;;;;;;;;;;;;;;2061983;28;19914;-95
2023/04/08 03:29:05;;;;;;;;;;;;;;;;;;2064801;28;20065;-95
2023/04/08 03:30:06;;;;;;;;;;;;;;;;;;2063531;28;20000;-94
2023/04/08 03:31:06;;;;;;;;;;;;;;;;;;2071580;28;19929;-95
2023/04/08 03:32:07;;;;;;;;;;;;;;;;;;2059836;28;19921;-94
2023/04/08 03:33:07;;;;;;;;;;;;;;;;;;2050025;28;19965;-94
2023/04/08 03:34:07;;;;;;;;;;;;;;;;;;2062628;28;19929;-94
2023/04/08 03:35:08;;;;;;;;;;;;;;;;;;2059595;28;20075;-93
2023/04/08 03:38:28;;;;;;;;;;;;;;;;;;2061260;28;19929;-89
2023/04/08 03:39:29;;;;;;;;;;;;;;;;;;2064367;28;20036;-90
2023/04/08 03:40:30;;;;;;;;;;;;;;;;;;2064405;28;19983;-90
2023/04/08 03:41:30;;;;;;;;;;;;;;;;;;2056605;28;19932;-90
2023/04/08 03:42:31;;;;;;;;;;;;;;;;;;2048981;28;19926;-90
2023/04/08 03:43:31;;;;;;;;;;;;;;;;;;2057205;28;19922;-90
2023/04/08 03:44:31;;;;;;;;;;;;;;;;;;2059843;28;19922;-88
2023/04/08 03:45:32;;;;;;;;;;;;;;;;;;2071345;28;19940;-88
2023/04/08 03:46:32;;;;;;;;;;;;;;;;;;2071008;28;19918;-86
2023/04/08 03:47:32;;;;;;;;;;;;;;;;;;2070912;28;20053;-87
2023/04/08 03:48:33;;;;;;;;;;;;;;;;;;2058207;28;19922;-90
2023/04/08 03:49:33;;;;;;;;;;;;;;;;;;2056328;28;19957;-90
2023/04/08 03:50:33;;;;;;;;;;;;;;;;;;2065273;28;20036;-90
2023/04/08 03:51:33;;;;;;;;;;;;;;;;;;2064733;28;20180;-90
2023/04/08 03:52:34;;;;;;;;;;;;;;;;;;2064002;28;19953;-89
2023/04/08 03:53:34;;;;;;;;;;;;;;;;;;2064310;28;19921;-90
2023/04/08 03:54:34;;;;;;;;;;;;;;;;;;2056587;28;19921;-90
2023/04/08 03:55:35;;;;;;;;;;;;;;;;;;2057266;28;19914;-90
2023/04/08 03:56:35;;;;;;;;;;;;;;;;;;2065728;28;19921;-90
2023/04/08 03:57:35;;;;;;;;;;;;;;;;;;2069741;28;19989;-88
2023/04/08 03:58:36;;;;;;;;;;;;;;;;;;2071106;28;19990;-88
2023/04/08 03:59:38;;;;;;;;;;;;;;;;;;2071358;28;19924;-87
2023/04/08 04:00:38;;;;;;;;;;;;;;;;;;2076531;28;19914;-88
2023/04/08 04:01:39;;;;;;;;;;;;;;;;;;2063995;28;19914;-89
2023/04/08 04:02:39;;;;;;;;;;;;;;;;;;2056384;28;19945;-90
2023/04/08 04:03:40;;;;;;;;;;;;;;;;;;2064856;28;19918;-89
2023/04/08 04:04:40;;;;;;;;;;;;;;;;;;2063973;28;19929;-90
2023/04/08 04:05:40;;;;;;;;;;;;;;;;;;2064251;28;20364;-90
2023/04/08 04:06:41;;;;;;;;;;;;;;;;;;2055869;28;20457;-89
2023/04/08 04:07:41;;;;;;;;;;;;;;;;;;2056384;28;19948;-89
2023/04/08 04:08:41;;;;;;;;;;;;;;;;;;2063571;28;20002;-89
2023/04/08 04:09:41;;;;;;;;;;;;;;;;;;2071835;28;20432;-89
2023/04/08 04:10:42;;;;;;;;;;;;;;;;;;2063872;28;20024;-89
2023/04/08 04:11:42;;;;;;;;;;;;;;;;;;2056173;28;19958;-90
2023/04/08 04:12:43;;;;;;;;;;;;;;;;;;2064449;28;19922;-89
2023/04/08 04:13:43;;;;;;;;;;;;;;;;;;2064668;28;20322;-89
2023/04/08 04:14:44;;;;;;;;;;;;;;;;;;2063846;28;19914;-90
2023/04/08 04:15:44;;;;;;;;;;;;;;;;;;2063747;28;19914;-90
2023/04/08 04:16:44;;;;;;;;;;;;;;;;;;2055003;28;19946;-91
2023/04/08 04:17:49;;;;;;;;;;;;;;;;;;2055561;28;19914;-91
2023/04/08 04:18:51;;;;;;;;;;;;;;;;;;2063148;28;19957;-90
2023/04/08 04:19:51;;;;;;;;;;;;;;;;;;2063749;28;20014;-90
2023/04/08 04:20:52;;;;;;;;;;;;;;;;;;2063968;28;19914;-90
2023/04/08 04:21:52;;;;;;;;;;;;;;;;;;2055630;28;19914;-91
2023/04/08 04:22:52;;;;;;;;;;;;;;;;;;2063374;28;20216;-90
2023/04/08 04:23:52;;;;;;;;;;;;;;;;;;2063803;28;19918;-90
2023/04/08 04:24:53;;;;;;;;;;;;;;;;;;2055926;28;20358;-90
2023/04/08 04:25:53;;;;;;;;;;;;;;;;;;2063753;28;19920;-90
2023/04/08 04:26:53;;;;;;;;;;;;;;;;;;2063751;28;19965;-90
2023/04/08 04:27:54;;;;;;;;;;;;;;;;;;2055915;28;19914;-90
2023/04/08 04:28:54;;;;;;;;;;;;;;;;;;2056280;28;19914;-91
2023/04/08 04:29:55;;;;;;;;;;;;;;;;;;2069205;28;20081;-90
2023/04/08 04:30:55;;;;;;;;;;;;;;;;;;2063513;28;19914;-89
2023/04/08 04:31:55;;;;;;;;;;;;;;;;;;2048768;29;19918;-90
2023/04/08 04:32:56;;;;;;;;;;;;;;;;;;2048338;29;19924;-89
2023/04/08 04:33:56;;;;;;;;;;;;;;;;;;1705203;28;10231900;-91
2023/04/08 04:34:56;;;;;;;;;;;;;;;;;;2048133;28;19917;-90
2023/04/08 04:35:57;;;;;;;;;;;;;;;;;;2055826;28;20338;-88
2023/04/08 04:36:57;;;;;;;;;;;;;;;;;;2055763;28;20004;-89
2023/04/08 04:37:57;;;;;;;;;;;;;;;;;;2055693;28;19918;-88
2023/04/08 04:38:58;;;;;;;;;;;;;;;;;;2064599;28;20064;-87
2023/04/08 04:39:58;;;;;;;;;;;;;;;;;;2064718;28;19956;-88
2023/04/08 04:41:00;;;;;;;;;;;;;;;;;;2080493;28;19914;-88
2023/04/08 04:42:02;;;;;;;;;;;;;;;;;;2073328;28;19968;-88
2023/04/08 04:43:02;;;;;;;;;;;;;;;;;;2065657;28;19954;-88
2023/04/08 04:44:02;;;;;;;;;;;;;;;;;;2069111;28;19961;-88
2023/04/08 04:45:03;;;;;;;;;;;;;;;;;;2075292;28;19914;-88
2023/04/08 04:46:05;;;;;;;;;;;;;;;;;;2066117;28;19914;-87
2023/04/08 04:47:06;;;;;;;;;;;;;;;;;;2050100;28;20350;-88
2023/04/08 04:48:06;;;;;;;;;;;;;;;;;;2056280;28;19929;-88
2023/04/08 04:49:07;;;;;;;;;;;;;;;;;;2055328;28;19914;-88
2023/04/08 04:50:07;;;;;;;;;;;;;;;;;;2063297;28;19914;-89
2023/04/08 04:51:07;;;;;;;;;;;;;;;;;;2063906;28;19929;-89
2023/04/08 04:52:08;;;;;;;;;;;;;;;;;;2063491;28;19918;-89
2023/04/08 04:53:08;;;;;;;;;;;;;;;;;;2063171;28;19914;-88
2023/04/08 04:54:08;;;;;;;;;;;;;;;;;;2055485;28;19914;-87
2023/04/08 04:55:09;;;;;;;;;;;;;;;;;;2055040;28;20088;-88
2023/04/08 04:56:09;;;;;;;;;;;;;;;;;;2055235;28;19958;-90
2023/04/08 04:57:10;;;;;;;;;;;;;;;;;;2071422;28;20305;-88
2023/04/08 04:58:10;;;;;;;;;;;;;;;;;;2063101;28;20007;-89
2023/04/08 04:59:10;;;;;;;;;;;;;;;;;;2055049;28;19980;-89
2023/04/08 05:00:11;;;;;;;;;;;;;;;;;;2064050;28;19963;-88
2023/04/08 05:01:11;;;;;;;;;;;;;;;;;;2060087;28;19977;-88
2023/04/08 05:02:11;;;;;;;;;;;;;;;;;;2064795;28;20274;-89
2023/04/08 05:03:12;;;;;;;;;;;;;;;;;;2068105;28;19981;-88
2023/04/08 05:04:12;;;;;;;;;;;;;;;;;;2071889;28;19976;-88
2023/04/08 05:05:12;;;;;;;;;;;;;;;;;;2067331;28;20417;-89
2023/04/08 05:06:13;;;;;;;;;;;;;;;;;;2064621;28;19969;-89
2023/04/08 05:07:13;;;;;;;;;;;;;;;;;;2055492;28;19914;-89
2023/04/08 05:08:13;;;;;;;;;;;;;;;;;;2055006;28;20400;-88
2023/04/08 05:09:14;;;;;;;;;;;;;;;;;;2064090;28;20071;-89
2023/04/08 05:10:14;;;;;;;;;;;;;;;;;;2063181;28;19981;-90
2023/04/08 05:11:17;;;;;;;;;;;;;;;;;;2055268;28;19945;-87
2023/04/08 05:12:19;;;;;;;;;;;;;;;;;;2063291;28;20043;-90
2023/04/08 05:13:19;;;;;;;;;;;;;;;;;;2070955;28;19924;-88
2023/04/08 05:14:21;;;;;;;;;;;;;;;;;;2063658;28;19925;-88
2023/04/08 05:15:22;;;;;;;;;;;;;;;;;;2064195;28;19924;-88
2023/04/08 05:16:23;;;;;;;;;;;;;;;;;;2063653;28;20393;-89
2023/04/08 05:17:23;;;;;;;;;;;;;;;;;;2055124;28;20004;-89
2023/04/08 05:18:23;;;;;;;;;;;;;;;;;;2055447;28;19948;-88
2023/04/08 05:19:24;;;;;;;;;;;;;;;;;;2067246;28;19906;-89
2023/04/08 05:20:24;;;;;;;;;;;;;;;;;;2071518;28;19913;-90
2023/04/08 05:21:25;;;;;;;;;;;;;;;;;;2064477;28;20124;-88
2023/04/08 05:22:25;;;;;;;;;;;;;;;;;;2055278;28;19914;-89
2023/04/08 05:23:25;;;;;;;;;;;;;;;;;;2063512;28;19929;-89
2023/04/08 05:24:25;;;;;;;;;;;;;;;;;;2058068;28;20362;-89
2023/04/08 05:25:26;;;;;;;;;;;;;;;;;;2063270;28;19915;-87
2023/04/08 05:26:26;;;;;;;;;;;;;;;;;;2056287;28;19918;-89
2023/04/08 05:27:26;;;;;;;;;;;;;;;;;;2063359;28;20298;-89
2023/04/08 05:28:27;;;;;;;;;;;;;;;;;;2063725;28;19914;-89
2023/04/08 05:29:27;;;;;;;;;;;;;;;;;;2065110;28;19922;-89
2023/04/08 05:30:27;;;;;;;;;;;;;;;;;;2063255;28;20422;-88
2023/04/08 05:31:28;;;;;;;;;;;;;;;;;;2063410;28;19918;-88
2023/04/08 05:32:28;;;;;;;;;;;;;;;;;;2055775;28;19914;-89
2023/04/08 05:33:29;;;;;;;;;;;;;;;;;;2047668;29;19915;-88
2023/04/08 05:34:30;;;;;;;;;;;;;;;;;;1697055;28;10254019;-89
2023/04/08 05:35:30;;;;;;;;;;;;;;;;;;2055250;28;20055;-89
2023/04/08 05:36:31;;;;;;;;;;;;;;;;;;2070973;28;19921;-89
2023/04/08 05:37:31;;;;;;;;;;;;;;;;;;2071199;28;19967;-88
2023/04/08 05:38:31;;;;;;;;;;;;;;;;;;2054815;28;20334;-89
2023/04/08 05:39:32;;;;;;;;;;;;;;;;;;2055088;28;19918;-89
2023/04/08 05:40:32;;;;;;;;;;;;;;;;;;2054841;28;20356;-89
2023/04/08 05:41:32;;;;;;;;;;;;;;;;;;2047130;29;19997;-89
2023/04/08 05:42:35;;;;;;;;;;;;;;;;;;2047030;29;19922;-89
2023/04/08 05:43:35;;;;;;;;;;;;;;;;;;2055249;28;19914;-89
2023/04/08 05:44:40;;;;;;;;;;;;;;;;;;2063619;28;19920;-88
2023/04/08 05:45:40;;;;;;;;;;;;;;;;;;2063635;28;20488;-89
2023/04/08 05:46:43;;;;;;;;;;;;;;;;;;2063727;28;20120;-88
2023/04/08 05:47:44;;;;;;;;;;;;;;;;;;2063586;28;19921;-87
2023/04/08 05:48:44;;;;;;;;;;;;;;;;;;2071020;28;19924;-88
2023/04/08 05:49:44;;;;;;;;;;;;;;;;;;2071213;28;19963;-88
2023/04/08 05:50:47;;;;;;;;;;;;;;;;;;2063658;28;20393;-88
2023/04/08 05:51:47;;;;;;;;;;;;;;;;;;2062698;28;19913;-88
2023/04/08 05:52:48;;;;;;;;;;;;;;;;;;2054952;28;19918;-86
2023/04/08 05:53:48;;;;;;;;;;;;;;;;;;2046766;28;19996;-87
2023/04/08 05:54:48;;;;;;;;;;;;;;;;;;2071044;28;20226;-88
2023/04/08 05:55:49;;;;;;;;;;;;;;;;;;2062882;28;19920;-86
2023/04/08 05:56:49;;;;;;;;;;;;;;;;;;2055145;28;19953;-87
2023/04/08 05:57:49;;;;;;;;;;;;;;;;;;2054655;28;19954;-87
2023/04/08 05:58:50;;;;;;;;;;;;;;;;;;2054682;28;19923;-87
2023/04/08 05:59:52;;;;;;;;;;;;;;;;;;2070804;28;20404;-89
2023/04/08 06:00:54;;;;;;;;;;;;;;;;;;2070950;28;20424;-87
2023/04/08 06:01:55;;;;;;;;;;;;;;;;;;2063438;28;20496;-87
2023/04/08 06:02:56;;;;;;;;;;;;;;;;;;2062711;28;19914;-88
2023/04/08 06:03:56;;;;;;;;;;;;;;;;;;2062984;28;20359;-87
2023/04/08 06:04:56;;;;;;;;;;;;;;;;;;2054720;28;19929;-87
2023/04/08 06:05:56;;;;;;;;;;;;;;;;;;2054873;28;19957;-88
2023/04/08 06:06:58;;;;;;;;;;;;;;;;;;2070868;28;20351;-89
2023/04/08 06:07:58;;;;;;;;;;;;;;;;;;2062745;28;19913;-89
2023/04/08 06:08:59;;;;;;;;;;;;;;;;;;2055388;28;19961;-89
2023/04/08 06:09:59;;;;;;;;;;;;;;;;;;2063526;28;19949;-89
2023/04/08 06:10:59;;;;;;;;;;;;;;;;;;2062738;28;19918;-88
2023/04/08 06:12:00;;;;;;;;;;;;;;;;;;2055244;28;20006;-87
2023/04/08 06:13:00;;;;;;;;;;;;;;;;;;2056881;28;19918;-88
2023/04/08 06:14:00;;;;;;;;;;;;;;;;;;2056116;28;20408;-87
2023/04/08 06:15:03;;;;;;;;;;;;;;;;;;2057580;28;20441;-88
2023/04/08 06:16:10;;;;;;;;;;;;;;;;;;2071904;28;19914;-89
2023/04/08 06:36:22;;;;;;;;;;;;;;;;;;1533433;23;20187;-92
2023/04/08 06:37:23;;;;;;;;;;;;;;;;;;2066545;28;20359;-93
2023/04/08 06:38:23;;;;;;;;;;;;;;;;;;2060233;28;19925;-93
2023/04/08 06:39:24;;;;;;;;;;;;;;;;;;2064455;28;19941;-90
2023/04/08 06:40:24;;;;;;;;;;;;;;;;;;2066110;28;19981;-90
2023/04/08 06:41:27;;;;;;;;;;;;;;;;;;2067184;28;19926;-89
2023/04/08 06:42:27;;;;;;;;;;;;;;;;;;2074383;28;19945;-89
2023/04/08 06:43:28;;;;;;;;;;;;;;;;;;2081225;28;19917;-89
2023/04/08 06:44:28;;;;;;;;;;;;;;;;;;2080272;28;19977;-89
2023/04/08 06:45:29;;;;;;;;;;;;;;;;;;2070582;28;19917;-89
2023/04/08 06:46:29;;;;;;;;;;;;;;;;;;2065679;28;20262;-90
2023/04/08 06:47:29;;;;;;;;;;;;;;;;;;2065536;28;20504;-88
2023/04/08 06:48:30;;;;;;;;;;;;;;;;;;2066178;28;19913;-89
2023/04/08 06:49:30;;;;;;;;;;;;;;;;;;2065708;28;20017;-90
2023/04/08 06:52:48;;;;;;;;;;;;;;;;;;2068176;28;20345;-90
2023/04/08 06:53:53;;;;;;;;;;;;;;;;;;2073367;28;19918;-90
2023/04/08 07:04:44;;;;;;;;;;;;;;;;;;2286466;23;19929;-93
2023/04/08 07:05:47;;;;;;;;;;;;;;;;;;2091004;28;20009;-93
2023/04/08 07:06:48;;;;;;;;;;;;;;;;;;2089872;28;19917;-93
2023/04/08 07:07:49;;;;;;;;;;;;;;;;;;2078273;28;20018;-93
2023/04/08 07:08:55;;;;;;;;;;;;;;;;;;2081002;28;19937;-95
2023/04/08 07:09:55;;;;;;;;;;;;;;;;;;2078819;28;19917;-94
2023/04/08 07:10:55;;;;;;;;;;;;;;;;;;2076792;28;19979;-92
2023/04/08 07:11:57;;;;;;;;;;;;;;;;;;2085884;28;20033;-92
2023/04/08 07:16:50;;;;;;;;;;;;;;;;;;2082415;28;19935;-93
2023/04/08 07:22:29;;;;;;;;;;;;;;;;;;2073502;28;19926;-89
2023/04/08 07:23:30;;;;;;;;;;;;;;;;;;2077563;28;19916;-88
2023/04/08 07:24:31;;;;;;;;;;;;;;;;;;2076145;28;20321;-94
2023/04/08 07:25:32;;;;;;;;;;;;;;;;;;2076431;28;19921;-93
2023/04/08 07:26:32;;;;;;;;;;;;;;;;;;2076400;28;20129;-92
2023/04/08 07:34:33;;;;;;;;;;;;;;;;;;2080554;28;19984;-91
2023/04/08 07:35:34;;;;;;;;;;;;;;;;;;2070340;28;19921;-89
2023/04/08 07:36:35;;;;;;;;;;;;;;;;;;2076293;28;19921;-89
2023/04/08 07:37:36;;;;;;;;;;;;;;;;;;2083883;28;19921;-89
2023/04/08 07:38:36;;;;;;;;;;;;;;;;;;2075241;28;19976;-90
2023/04/08 07:39:36;;;;;;;;;;;;;;;;;;2076779;28;19913;-90
2023/04/08 07:40:37;;;;;;;;;;;;;;;;;;2065863;28;20045;-89
2023/04/08 07:41:37;;;;;;;;;;;;;;;;;;2058984;28;19925;-89
2023/04/08 07:42:38;;;;;;;;;;;;;;;;;;1714549;28;10244531;-89
2023/04/08 07:43:40;;;;;;;;;;;;;;;;;;2077909;28;19913;-90
2023/04/08 07:45:59;;;;;;;;;;;;;;;;;;2175070;23;19937;-90